sensor_id;sensor_type;location;lat;lon;timestamp;temperature;humidity
18950;DHT22;9608;49.288;8.130;2023-11-22T00:00:40;5.60;99.90
18950;DHT22;9608;49.288;8.130;2023-11-22T00:03:07;5.60;99.90
18950;DHT22;9608;49.288;8.130;2023-11-22T00:05:34;5.60;99.90
18950;DHT22;9608;49.288;8.130;2023-11-22T00:08:01;5.50;99.90
18950;DHT22;9608;49.288;8.130;2023-11-22T00:10:28;5.40;99.90
18950;DHT22;9608;49.288;8.130;2023-11-22T00:12:54;5.30;99.90
18950;DHT22;9608;49.288;8.130;2023-11-22T00:15:22;5.20;99.90
18950;DHT22;9608;49.288;8.130;2023-11-22T00:17:49;5.20;99.90
18950;DHT22;9608;49.288;8.130;2023-11-22T00:20:16;5.20;99.90
18950;DHT22;9608;49.288;8.130;2023-11-22T00:22:43;5.10;99.90
18950;DHT22;9608;49.288;8.130;2023-11-22T00:25:10;5.10;99.90
18950;DHT22;9608;49.288;8.130;2023-11-22T00:27:39;5.00;99.90
18950;DHT22;9608;49.288;8.130;2023-11-22T00:30:06;5.00;99.90
18950;DHT22;9608;49.288;8.130;2023-11-22T00:32:36;5.00;99.90
18950;DHT22;9608;49.288;8.130;2023-11-22T00:35:03;4.90;99.90
18950;DHT22;9608;49.288;8.130;2023-11-22T00:37:30;4.80;99.90
18950;DHT22;9608;49.288;8.130;2023-11-22T00:39:57;4.70;99.90
18950;DHT22;9608;49.288;8.130;2023-11-22T00:42:25;4.60;99.90
18950;DHT22;9608;49.288;8.130;2023-11-22T00:44:52;4.60;99.90
18950;DHT22;9608;49.288;8.130;2023-11-22T00:47:19;4.60;99.90
18950;DHT22;9608;49.288;8.130;2023-11-22T00:49:47;4.60;99.90
18950;DHT22;9608;49.288;8.130;2023-11-22T00:52:14;4.60;99.90
18950;DHT22;9608;49.288;8.130;2023-11-22T00:54:40;4.70;99.90
18950;DHT22;9608;49.288;8.130;2023-11-22T00:57:07;4.70;99.90
18950;DHT22;9608;49.288;8.130;2023-11-22T00:59:34;4.70;99.90
18950;DHT22;9608;49.288;8.130;2023-11-22T01:02:00;4.70;99.90
18950;DHT22;9608;49.288;8.130;2023-11-22T01:04:30;4.70;99.90
18950;DHT22;9608;49.288;8.130;2023-11-22T01:07:00;4.80;99.90
18950;DHT22;9608;49.288;8.130;2023-11-22T01:09:27;4.90;99.90
18950;DHT22;9608;49.288;8.130;2023-11-22T01:11:54;4.90;99.90
18950;DHT22;9608;49.288;8.130;2023-11-22T01:14:21;4.80;99.90
18950;DHT22;9608;49.288;8.130;2023-11-22T01:16:48;4.90;99.90
18950;DHT22;9608;49.288;8.130;2023-11-22T01:19:15;4.90;99.90
18950;DHT22;9608;49.288;8.130;2023-11-22T01:21:41;4.90;99.90
18950;DHT22;9608;49.288;8.130;2023-11-22T01:24:10;4.90;99.90
18950;DHT22;9608;49.288;8.130;2023-11-22T01:26:36;4.70;99.90
18950;DHT22;9608;49.288;8.130;2023-11-22T01:29:04;4.60;99.90
18950;DHT22;9608;49.288;8.130;2023-11-22T01:31:30;4.60;99.90
18950;DHT22;9608;49.288;8.130;2023-11-22T01:33:57;4.50;99.90
18950;DHT22;9608;49.288;8.130;2023-11-22T01:36:24;4.50;99.90
18950;DHT22;9608;49.288;8.130;2023-11-22T01:38:51;4.40;99.90
18950;DHT22;9608;49.288;8.130;2023-11-22T01:41:20;4.40;99.90
18950;DHT22;9608;49.288;8.130;2023-11-22T01:43:47;4.40;99.90
18950;DHT22;9608;49.288;8.130;2023-11-22T01:46:21;4.40;99.90
18950;DHT22;9608;49.288;8.130;2023-11-22T01:48:49;4.30;99.90
18950;DHT22;9608;49.288;8.130;2023-11-22T01:51:18;4.30;99.90
18950;DHT22;9608;49.288;8.130;2023-11-22T01:53:45;4.20;99.90
18950;DHT22;9608;49.288;8.130;2023-11-22T01:56:13;4.20;99.90
18950;DHT22;9608;49.288;8.130;2023-11-22T01:58:41;4.10;99.90
18950;DHT22;9608;49.288;8.130;2023-11-22T02:01:09;4.10;99.90
18950;DHT22;9608;49.288;8.130;2023-11-22T02:03:37;4.10;99.90
18950;DHT22;9608;49.288;8.130;2023-11-22T02:06:04;4.10;99.90
18950;DHT22;9608;49.288;8.130;2023-11-22T02:08:31;4.10;99.90
18950;DHT22;9608;49.288;8.130;2023-11-22T02:10:58;4.00;99.90
18950;DHT22;9608;49.288;8.130;2023-11-22T02:13:25;3.90;99.90
18950;DHT22;9608;49.288;8.130;2023-11-22T02:15:53;3.90;99.90
18950;DHT22;9608;49.288;8.130;2023-11-22T02:18:21;3.90;99.90
18950;DHT22;9608;49.288;8.130;2023-11-22T02:20:48;3.80;99.90
18950;DHT22;9608;49.288;8.130;2023-11-22T02:23:17;3.90;99.90
18950;DHT22;9608;49.288;8.130;2023-11-22T02:25:43;3.90;99.90
18950;DHT22;9608;49.288;8.130;2023-11-22T02:28:11;3.80;99.90
18950;DHT22;9608;49.288;8.130;2023-11-22T02:30:38;3.70;99.90
18950;DHT22;9608;49.288;8.130;2023-11-22T02:33:05;3.70;99.90
18950;DHT22;9608;49.288;8.130;2023-11-22T02:35:31;3.70;99.90
18950;DHT22;9608;49.288;8.130;2023-11-22T02:37:58;3.80;99.90
18950;DHT22;9608;49.288;8.130;2023-11-22T02:40:26;3.70;99.90
18950;DHT22;9608;49.288;8.130;2023-11-22T02:42:56;3.60;99.90
18950;DHT22;9608;49.288;8.130;2023-11-22T02:45:26;3.70;99.90
18950;DHT22;9608;49.288;8.130;2023-11-22T02:47:53;3.60;99.90
18950;DHT22;9608;49.288;8.130;2023-11-22T02:50:20;3.60;99.90
18950;DHT22;9608;49.288;8.130;2023-11-22T02:52:47;3.60;99.90
18950;DHT22;9608;49.288;8.130;2023-11-22T02:55:13;3.50;99.90
18950;DHT22;9608;49.288;8.130;2023-11-22T02:57:42;3.50;99.90
18950;DHT22;9608;49.288;8.130;2023-11-22T03:00:09;3.60;99.90
18950;DHT22;9608;49.288;8.130;2023-11-22T03:02:38;3.50;99.90
18950;DHT22;9608;49.288;8.130;2023-11-22T03:05:07;3.50;99.90
18950;DHT22;9608;49.288;8.130;2023-11-22T03:07:34;3.50;99.90
18950;DHT22;9608;49.288;8.130;2023-11-22T03:10:01;3.40;99.90
18950;DHT22;9608;49.288;8.130;2023-11-22T03:12:28;3.40;99.90
18950;DHT22;9608;49.288;8.130;2023-11-22T03:14:56;3.40;99.90
18950;DHT22;9608;49.288;8.130;2023-11-22T03:17:26;3.40;99.90
18950;DHT22;9608;49.288;8.130;2023-11-22T03:19:54;3.40;99.90
18950;DHT22;9608;49.288;8.130;2023-11-22T03:22:22;3.40;99.90
18950;DHT22;9608;49.288;8.130;2023-11-22T03:24:49;3.50;99.90
18950;DHT22;9608;49.288;8.130;2023-11-22T03:27:15;3.50;99.90
18950;DHT22;9608;49.288;8.130;2023-11-22T03:29:42;3.50;99.90
18950;DHT22;9608;49.288;8.130;2023-11-22T03:32:11;3.40;99.90
18950;DHT22;9608;49.288;8.130;2023-11-22T03:34:37;3.30;99.90
18950;DHT22;9608;49.288;8.130;2023-11-22T03:37:04;3.40;99.90
18950;DHT22;9608;49.288;8.130;2023-11-22T03:39:31;3.40;99.90
18950;DHT22;9608;49.288;8.130;2023-11-22T03:41:57;3.40;99.90
18950;DHT22;9608;49.288;8.130;2023-11-22T03:44:24;3.40;99.90
18950;DHT22;9608;49.288;8.130;2023-11-22T03:46:51;3.30;99.90
18950;DHT22;9608;49.288;8.130;2023-11-22T03:49:19;3.20;99.90
18950;DHT22;9608;49.288;8.130;2023-11-22T03:51:47;3.30;99.90
18950;DHT22;9608;49.288;8.130;2023-11-22T03:54:14;3.30;99.90
18950;DHT22;9608;49.288;8.130;2023-11-22T03:56:40;3.40;99.90
18950;DHT22;9608;49.288;8.130;2023-11-22T03:59:07;3.40;99.90
18950;DHT22;9608;49.288;8.130;2023-11-22T04:01:33;3.40;99.90
18950;DHT22;9608;49.288;8.130;2023-11-22T04:04:00;3.30;99.90
18950;DHT22;9608;49.288;8.130;2023-11-22T04:06:28;3.30;99.90
18950;DHT22;9608;49.288;8.130;2023-11-22T04:08:54;3.20;99.90
18950;DHT22;9608;49.288;8.130;2023-11-22T04:11:21;3.10;99.90
18950;DHT22;9608;49.288;8.130;2023-11-22T04:13:48;3.20;99.90
18950;DHT22;9608;49.288;8.130;2023-11-22T04:16:15;3.20;99.90
18950;DHT22;9608;49.288;8.130;2023-11-22T04:18:42;3.10;99.90
18950;DHT22;9608;49.288;8.130;2023-11-22T04:21:09;3.20;99.90
18950;DHT22;9608;49.288;8.130;2023-11-22T04:23:37;3.20;99.90
18950;DHT22;9608;49.288;8.130;2023-11-22T04:26:04;3.10;99.90
18950;DHT22;9608;49.288;8.130;2023-11-22T04:28:32;3.10;99.90
18950;DHT22;9608;49.288;8.130;2023-11-22T04:31:00;3.10;99.90
18950;DHT22;9608;49.288;8.130;2023-11-22T04:33:26;3.10;99.90
18950;DHT22;9608;49.288;8.130;2023-11-22T04:35:54;3.10;99.90
18950;DHT22;9608;49.288;8.130;2023-11-22T04:38:21;3.00;99.90
18950;DHT22;9608;49.288;8.130;2023-11-22T04:40:49;3.00;99.90
18950;DHT22;9608;49.288;8.130;2023-11-22T04:43:15;3.00;99.90
18950;DHT22;9608;49.288;8.130;2023-11-22T04:45:42;3.00;99.90
18950;DHT22;9608;49.288;8.130;2023-11-22T04:48:09;3.00;99.90
18950;DHT22;9608;49.288;8.130;2023-11-22T04:50:36;2.90;99.90
18950;DHT22;9608;49.288;8.130;2023-11-22T04:53:02;2.90;99.90
18950;DHT22;9608;49.288;8.130;2023-11-22T04:55:29;2.90;99.90
18950;DHT22;9608;49.288;8.130;2023-11-22T04:57:57;2.90;99.90
18950;DHT22;9608;49.288;8.130;2023-11-22T05:00:24;2.80;99.90
18950;DHT22;9608;49.288;8.130;2023-11-22T05:02:51;2.70;99.90
18950;DHT22;9608;49.288;8.130;2023-11-22T05:05:18;2.80;99.90
18950;DHT22;9608;49.288;8.130;2023-11-22T05:07:44;2.70;99.90
18950;DHT22;9608;49.288;8.130;2023-11-22T05:10:11;2.70;99.90
18950;DHT22;9608;49.288;8.130;2023-11-22T05:12:38;2.70;99.90
18950;DHT22;9608;49.288;8.130;2023-11-22T05:15:07;2.70;99.90
18950;DHT22;9608;49.288;8.130;2023-11-22T05:17:34;2.80;99.90
18950;DHT22;9608;49.288;8.130;2023-11-22T05:20:00;2.90;99.90
18950;DHT22;9608;49.288;8.130;2023-11-22T05:22:27;2.80;99.90
18950;DHT22;9608;49.288;8.130;2023-11-22T05:24:54;2.80;99.90
18950;DHT22;9608;49.288;8.130;2023-11-22T05:27:21;2.70;99.90
18950;DHT22;9608;49.288;8.130;2023-11-22T05:29:48;2.70;99.90
18950;DHT22;9608;49.288;8.130;2023-11-22T05:32:16;2.70;99.90
18950;DHT22;9608;49.288;8.130;2023-11-22T05:34:43;2.60;99.90
18950;DHT22;9608;49.288;8.130;2023-11-22T05:37:10;2.60;99.90
18950;DHT22;9608;49.288;8.130;2023-11-22T05:39:36;2.50;99.90
18950;DHT22;9608;49.288;8.130;2023-11-22T05:42:03;2.50;99.90
18950;DHT22;9608;49.288;8.130;2023-11-22T05:44:30;2.50;99.90
18950;DHT22;9608;49.288;8.130;2023-11-22T05:46:57;2.50;99.90
18950;DHT22;9608;49.288;8.130;2023-11-22T05:49:25;2.50;99.90
18950;DHT22;9608;49.288;8.130;2023-11-22T05:51:52;2.50;99.90
18950;DHT22;9608;49.288;8.130;2023-11-22T05:54:18;2.50;99.90
18950;DHT22;9608;49.288;8.130;2023-11-22T05:56:45;2.50;99.90
18950;DHT22;9608;49.288;8.130;2023-11-22T05:59:12;2.40;99.90
18950;DHT22;9608;49.288;8.130;2023-11-22T06:01:38;2.30;99.90
18950;DHT22;9608;49.288;8.130;2023-11-22T06:04:05;2.20;99.90
18950;DHT22;9608;49.288;8.130;2023-11-22T06:06:36;2.30;99.90
18950;DHT22;9608;49.288;8.130;2023-11-22T06:09:03;2.30;99.90
18950;DHT22;9608;49.288;8.130;2023-11-22T06:11:30;2.20;99.90
18950;DHT22;9608;49.288;8.130;2023-11-22T06:13:57;2.20;99.90
18950;DHT22;9608;49.288;8.130;2023-11-22T06:16:24;2.20;99.90
18950;DHT22;9608;49.288;8.130;2023-11-22T06:18:50;2.20;99.90
18950;DHT22;9608;49.288;8.130;2023-11-22T06:21:17;2.20;99.90
18950;DHT22;9608;49.288;8.130;2023-11-22T06:23:45;2.20;99.90
18950;DHT22;9608;49.288;8.130;2023-11-22T06:26:12;2.10;99.90
18950;DHT22;9608;49.288;8.130;2023-11-22T06:28:40;2.20;99.90
18950;DHT22;9608;49.288;8.130;2023-11-22T06:31:07;2.20;99.90
18950;DHT22;9608;49.288;8.130;2023-11-22T06:33:34;2.20;99.90
18950;DHT22;9608;49.288;8.130;2023-11-22T06:36:01;2.20;99.90
18950;DHT22;9608;49.288;8.130;2023-11-22T06:38:29;2.20;99.90
18950;DHT22;9608;49.288;8.130;2023-11-22T06:40:57;2.10;99.90
18950;DHT22;9608;49.288;8.130;2023-11-22T06:43:23;2.00;99.90
18950;DHT22;9608;49.288;8.130;2023-11-22T06:45:50;1.90;99.90
18950;DHT22;9608;49.288;8.130;2023-11-22T06:48:17;1.90;99.90
18950;DHT22;9608;49.288;8.130;2023-11-22T06:50:44;1.90;99.90
18950;DHT22;9608;49.288;8.130;2023-11-22T06:53:11;1.90;99.90
18950;DHT22;9608;49.288;8.130;2023-11-22T06:55:38;1.80;99.90
18950;DHT22;9608;49.288;8.130;2023-11-22T06:58:06;1.90;99.90
18950;DHT22;9608;49.288;8.130;2023-11-22T07:00:33;1.90;99.90
18950;DHT22;9608;49.288;8.130;2023-11-22T07:03:00;2.00;99.90
18950;DHT22;9608;49.288;8.130;2023-11-22T07:05:27;2.10;99.90
18950;DHT22;9608;49.288;8.130;2023-11-22T07:07:58;2.20;99.90
18950;DHT22;9608;49.288;8.130;2023-11-22T07:10:30;2.30;99.90
18950;DHT22;9608;49.288;8.130;2023-11-22T07:12:59;2.50;99.90
18950;DHT22;9608;49.288;8.130;2023-11-22T07:15:30;2.60;99.90
18950;DHT22;9608;49.288;8.130;2023-11-22T07:18:02;2.60;99.90
18950;DHT22;9608;49.288;8.130;2023-11-22T07:20:29;2.70;99.90
18950;DHT22;9608;49.288;8.130;2023-11-22T07:22:56;2.70;99.90
18950;DHT22;9608;49.288;8.130;2023-11-22T07:25:26;2.70;99.90
18950;DHT22;9608;49.288;8.130;2023-11-22T07:27:55;2.80;99.90
18950;DHT22;9608;49.288;8.130;2023-11-22T07:30:23;2.80;99.90
18950;DHT22;9608;49.288;8.130;2023-11-22T07:32:55;2.90;99.90
18950;DHT22;9608;49.288;8.130;2023-11-22T07:35:24;2.90;99.90
18950;DHT22;9608;49.288;8.130;2023-11-22T07:37:53;3.00;99.90
18950;DHT22;9608;49.288;8.130;2023-11-22T07:40:22;3.00;99.90
18950;DHT22;9608;49.288;8.130;2023-11-22T07:42:52;2.90;99.90
18950;DHT22;9608;49.288;8.130;2023-11-22T07:45:20;2.90;99.90
18950;DHT22;9608;49.288;8.130;2023-11-22T07:47:49;2.80;99.90
18950;DHT22;9608;49.288;8.130;2023-11-22T07:50:20;2.80;99.90
18950;DHT22;9608;49.288;8.130;2023-11-22T07:52:49;2.70;99.90
18950;DHT22;9608;49.288;8.130;2023-11-22T07:55:19;2.70;99.90
18950;DHT22;9608;49.288;8.130;2023-11-22T07:57:56;2.80;99.90
18950;DHT22;9608;49.288;8.130;2023-11-22T08:00:24;2.90;99.90
18950;DHT22;9608;49.288;8.130;2023-11-22T08:02:52;2.80;99.90
18950;DHT22;9608;49.288;8.130;2023-11-22T08:05:24;2.90;99.90
18950;DHT22;9608;49.288;8.130;2023-11-22T08:07:51;2.90;99.90
18950;DHT22;9608;49.288;8.130;2023-11-22T08:10:19;3.10;99.90
18950;DHT22;9608;49.288;8.130;2023-11-22T08:12:47;2.90;99.90
18950;DHT22;9608;49.288;8.130;2023-11-22T08:15:17;2.80;99.90
18950;DHT22;9608;49.288;8.130;2023-11-22T08:17:49;2.80;99.90
18950;DHT22;9608;49.288;8.130;2023-11-22T08:20:18;2.80;99.90
18950;DHT22;9608;49.288;8.130;2023-11-22T08:22:58;2.60;99.90
18950;DHT22;9608;49.288;8.130;2023-11-22T08:25:29;2.50;99.90
18950;DHT22;9608;49.288;8.130;2023-11-22T08:27:57;2.40;99.90
18950;DHT22;9608;49.288;8.130;2023-11-22T08:30:25;2.40;99.90
18950;DHT22;9608;49.288;8.130;2023-11-22T08:33:08;2.30;99.90
18950;DHT22;9608;49.288;8.130;2023-11-22T08:36:02;2.50;99.90
18950;DHT22;9608;49.288;8.130;2023-11-22T08:38:35;2.50;99.90
18950;DHT22;9608;49.288;8.130;2023-11-22T08:41:05;2.60;99.90
18950;DHT22;9608;49.288;8.130;2023-11-22T08:43:32;2.60;99.90
18950;DHT22;9608;49.288;8.130;2023-11-22T08:45:59;2.40;99.90
18950;DHT22;9608;49.288;8.130;2023-11-22T08:48:27;2.40;99.90
18950;DHT22;9608;49.288;8.130;2023-11-22T08:50:55;2.40;99.90
18950;DHT22;9608;49.288;8.130;2023-11-22T08:53:22;2.60;99.90
18950;DHT22;9608;49.288;8.130;2023-11-22T09:03:06;2.50;99.90
18950;DHT22;9608;49.288;8.130;2023-11-22T09:06:19;2.50;99.90
18950;DHT22;9608;49.288;8.130;2023-11-22T09:09:35;2.50;99.90
18950;DHT22;9608;49.288;8.130;2023-11-22T09:12:42;2.50;99.90
18950;DHT22;9608;49.288;8.130;2023-11-22T09:15:55;2.50;99.90
18950;DHT22;9608;49.288;8.130;2023-11-22T09:19:07;2.60;99.90
18950;DHT22;9608;49.288;8.130;2023-11-22T09:22:22;2.90;99.90
18950;DHT22;9608;49.288;8.130;2023-11-22T09:25:40;3.00;99.90
18950;DHT22;9608;49.288;8.130;2023-11-22T09:29:02;3.10;99.90
18950;DHT22;9608;49.288;8.130;2023-11-22T09:32:18;3.10;99.90
18950;DHT22;9608;49.288;8.130;2023-11-22T09:38:51;3.50;99.90
18950;DHT22;9608;49.288;8.130;2023-11-22T09:42:22;3.60;99.90
18950;DHT22;9608;49.288;8.130;2023-11-22T09:45:40;3.30;99.90
18950;DHT22;9608;49.288;8.130;2023-11-22T09:49:18;3.20;99.90
18950;DHT22;9608;49.288;8.130;2023-11-22T10:25:44;3.10;99.90
18950;DHT22;9608;49.288;8.130;2023-11-22T10:28:17;3.20;99.90
18950;DHT22;9608;49.288;8.130;2023-11-22T10:30:45;3.20;99.90
18950;DHT22;9608;49.288;8.130;2023-11-22T10:33:14;3.10;99.90
18950;DHT22;9608;49.288;8.130;2023-11-22T10:35:42;3.20;99.90
18950;DHT22;9608;49.288;8.130;2023-11-22T10:38:10;3.30;99.90
18950;DHT22;9608;49.288;8.130;2023-11-22T10:40:39;3.20;99.90
18950;DHT22;9608;49.288;8.130;2023-11-22T10:43:07;3.00;99.90
18950;DHT22;9608;49.288;8.130;2023-11-22T10:45:37;3.00;99.90
18950;DHT22;9608;49.288;8.130;2023-11-22T10:48:05;3.20;99.90
18950;DHT22;9608;49.288;8.130;2023-11-22T10:50:38;3.40;99.90
18950;DHT22;9608;49.288;8.130;2023-11-22T10:53:07;3.40;99.90
18950;DHT22;9608;49.288;8.130;2023-11-22T10:55:45;3.30;99.90
18950;DHT22;9608;49.288;8.130;2023-11-22T10:58:14;3.40;99.90
18950;DHT22;9608;49.288;8.130;2023-11-22T11:00:42;3.40;99.90
18950;DHT22;9608;49.288;8.130;2023-11-22T11:03:14;3.50;99.90
18950;DHT22;9608;49.288;8.130;2023-11-22T11:05:50;3.50;99.90
18950;DHT22;9608;49.288;8.130;2023-11-22T11:08:20;3.60;99.90
18950;DHT22;9608;49.288;8.130;2023-11-22T11:10:59;3.70;99.90
18950;DHT22;9608;49.288;8.130;2023-11-22T11:13:30;3.70;99.90
18950;DHT22;9608;49.288;8.130;2023-11-22T11:15:58;3.80;99.90
18950;DHT22;9608;49.288;8.130;2023-11-22T11:18:28;3.40;99.90
18950;DHT22;9608;49.288;8.130;2023-11-22T11:20:58;3.30;99.90
18950;DHT22;9608;49.288;8.130;2023-11-22T11:23:29;3.20;99.90
18950;DHT22;9608;49.288;8.130;2023-11-22T11:26:15;3.30;99.90
18950;DHT22;9608;49.288;8.130;2023-11-22T11:29:12;3.30;99.90
18950;DHT22;9608;49.288;8.130;2023-11-22T11:32:34;3.30;99.90
18950;DHT22;9608;49.288;8.130;2023-11-22T11:35:06;3.70;99.90
18950;DHT22;9608;49.288;8.130;2023-11-22T11:38:07;3.90;99.90
18950;DHT22;9608;49.288;8.130;2023-11-22T11:41:12;4.00;99.90
18950;DHT22;9608;49.288;8.130;2023-11-22T11:43:48;3.90;99.90
18950;DHT22;9608;49.288;8.130;2023-11-22T11:46:17;3.90;99.90
18950;DHT22;9608;49.288;8.130;2023-11-22T11:49:17;3.80;99.90
18950;DHT22;9608;49.288;8.130;2023-11-22T11:52:37;3.90;99.90
18950;DHT22;9608;49.288;8.130;2023-11-22T11:55:31;4.10;99.90
18950;DHT22;9608;49.288;8.130;2023-11-22T12:05:13;4.10;99.90
18950;DHT22;9608;49.288;8.130;2023-11-22T12:07:47;4.10;99.90
18950;DHT22;9608;49.288;8.130;2023-11-22T12:10:17;4.20;99.90
18950;DHT22;9608;49.288;8.130;2023-11-22T12:12:52;4.30;99.90
18950;DHT22;9608;49.288;8.130;2023-11-22T12:15:23;4.20;99.90
18950;DHT22;9608;49.288;8.130;2023-11-22T12:17:51;4.30;99.90
18950;DHT22;9608;49.288;8.130;2023-11-22T12:20:24;4.20;99.90
18950;DHT22;9608;49.288;8.130;2023-11-22T12:22:57;4.30;99.90
18950;DHT22;9608;49.288;8.130;2023-11-22T12:25:26;4.30;99.90
18950;DHT22;9608;49.288;8.130;2023-11-22T12:27:54;4.30;99.90
18950;DHT22;9608;49.288;8.130;2023-11-22T12:30:29;4.40;99.90
18950;DHT22;9608;49.288;8.130;2023-11-22T12:32:57;4.30;99.90
18950;DHT22;9608;49.288;8.130;2023-11-22T12:35:25;4.40;99.90
18950;DHT22;9608;49.288;8.130;2023-11-22T12:37:53;4.60;99.90
18950;DHT22;9608;49.288;8.130;2023-11-22T12:40:21;4.70;99.90
18950;DHT22;9608;49.288;8.130;2023-11-22T12:42:48;4.80;99.90
18950;DHT22;9608;49.288;8.130;2023-11-22T12:45:22;4.70;99.90
18950;DHT22;9608;49.288;8.130;2023-11-22T12:47:52;4.80;99.90
18950;DHT22;9608;49.288;8.130;2023-11-22T12:50:31;4.80;99.90
18950;DHT22;9608;49.288;8.130;2023-11-22T12:52:59;4.90;99.90
18950;DHT22;9608;49.288;8.130;2023-11-22T12:55:33;5.10;99.90
18950;DHT22;9608;49.288;8.130;2023-11-22T12:58:00;5.10;99.90
18950;DHT22;9608;49.288;8.130;2023-11-22T13:00:29;5.10;99.90
18950;DHT22;9608;49.288;8.130;2023-11-22T13:02:56;5.10;99.90
18950;DHT22;9608;49.288;8.130;2023-11-22T13:05:23;5.00;99.90
18950;DHT22;9608;49.288;8.130;2023-11-22T13:07:54;4.70;99.90
18950;DHT22;9608;49.288;8.130;2023-11-22T13:10:21;4.50;99.90
18950;DHT22;9608;49.288;8.130;2023-11-22T13:12:52;4.30;99.90
18950;DHT22;9608;49.288;8.130;2023-11-22T13:15:20;4.40;99.90
18950;DHT22;9608;49.288;8.130;2023-11-22T13:17:49;4.30;99.90
18950;DHT22;9608;49.288;8.130;2023-11-22T13:20:16;4.30;99.90
18950;DHT22;9608;49.288;8.130;2023-11-22T13:22:45;4.10;99.90
18950;DHT22;9608;49.288;8.130;2023-11-22T13:25:14;4.20;99.90
18950;DHT22;9608;49.288;8.130;2023-11-22T13:27:42;4.20;99.90
18950;DHT22;9608;49.288;8.130;2023-11-22T13:30:09;4.40;99.90
18950;DHT22;9608;49.288;8.130;2023-11-22T13:32:37;4.50;99.90
18950;DHT22;9608;49.288;8.130;2023-11-22T13:35:07;4.70;99.90
18950;DHT22;9608;49.288;8.130;2023-11-22T13:37:40;4.80;99.90
18950;DHT22;9608;49.288;8.130;2023-11-22T13:40:09;4.80;99.90
18950;DHT22;9608;49.288;8.130;2023-11-22T13:42:41;4.90;99.90
18950;DHT22;9608;49.288;8.130;2023-11-22T13:45:09;4.90;99.90
18950;DHT22;9608;49.288;8.130;2023-11-22T13:47:36;4.60;99.90
18950;DHT22;9608;49.288;8.130;2023-11-22T13:50:03;4.40;99.90
18950;DHT22;9608;49.288;8.130;2023-11-22T13:52:30;4.30;99.90
18950;DHT22;9608;49.288;8.130;2023-11-22T13:54:58;4.20;99.90
18950;DHT22;9608;49.288;8.130;2023-11-22T13:57:24;4.30;99.90
18950;DHT22;9608;49.288;8.130;2023-11-22T13:59:52;4.40;99.90
18950;DHT22;9608;49.288;8.130;2023-11-22T14:02:19;4.40;99.90
18950;DHT22;9608;49.288;8.130;2023-11-22T14:04:46;4.50;99.90
18950;DHT22;9608;49.288;8.130;2023-11-22T14:07:13;4.40;99.90
18950;DHT22;9608;49.288;8.130;2023-11-22T14:09:39;4.50;99.90
18950;DHT22;9608;49.288;8.130;2023-11-22T14:12:06;4.50;99.90
18950;DHT22;9608;49.288;8.130;2023-11-22T14:14:33;4.30;99.90
18950;DHT22;9608;49.288;8.130;2023-11-22T14:17:01;4.20;99.90
18950;DHT22;9608;49.288;8.130;2023-11-22T14:19:28;4.10;99.90
18950;DHT22;9608;49.288;8.130;2023-11-22T14:21:54;4.10;99.90
18950;DHT22;9608;49.288;8.130;2023-11-22T14:24:21;3.80;99.90
18950;DHT22;9608;49.288;8.130;2023-11-22T14:26:48;3.90;99.90
18950;DHT22;9608;49.288;8.130;2023-11-22T14:29:16;3.70;99.90
18950;DHT22;9608;49.288;8.130;2023-11-22T14:31:43;3.90;99.90
18950;DHT22;9608;49.288;8.130;2023-11-22T14:34:11;4.00;99.90
18950;DHT22;9608;49.288;8.130;2023-11-22T14:36:38;4.00;99.90
18950;DHT22;9608;49.288;8.130;2023-11-22T14:39:05;4.00;99.90
18950;DHT22;9608;49.288;8.130;2023-11-22T14:41:32;4.00;99.90
18950;DHT22;9608;49.288;8.130;2023-11-22T14:44:00;4.10;99.90
18950;DHT22;9608;49.288;8.130;2023-11-22T14:46:27;4.00;99.90
18950;DHT22;9608;49.288;8.130;2023-11-22T14:48:54;4.00;99.90
18950;DHT22;9608;49.288;8.130;2023-11-22T14:51:22;4.00;99.90
18950;DHT22;9608;49.288;8.130;2023-11-22T14:53:49;3.90;99.90
18950;DHT22;9608;49.288;8.130;2023-11-22T14:56:17;3.70;99.90
18950;DHT22;9608;49.288;8.130;2023-11-22T14:58:44;3.70;99.90
18950;DHT22;9608;49.288;8.130;2023-11-22T15:01:10;3.50;99.90
18950;DHT22;9608;49.288;8.130;2023-11-22T15:03:37;3.50;99.90
18950;DHT22;9608;49.288;8.130;2023-11-22T15:06:04;3.40;99.90
18950;DHT22;9608;49.288;8.130;2023-11-22T15:08:32;3.40;99.90
18950;DHT22;9608;49.288;8.130;2023-11-22T15:10:59;3.40;99.90
18950;DHT22;9608;49.288;8.130;2023-11-22T15:13:26;3.40;99.90
18950;DHT22;9608;49.288;8.130;2023-11-22T15:15:53;3.30;99.90
18950;DHT22;9608;49.288;8.130;2023-11-22T15:18:22;3.30;99.90
18950;DHT22;9608;49.288;8.130;2023-11-22T15:20:50;3.10;99.90
18950;DHT22;9608;49.288;8.130;2023-11-22T15:23:16;3.00;99.90
18950;DHT22;9608;49.288;8.130;2023-11-22T15:25:46;3.10;99.90
18950;DHT22;9608;49.288;8.130;2023-11-22T15:28:13;3.00;99.90
18950;DHT22;9608;49.288;8.130;2023-11-22T15:30:47;3.20;99.90
18950;DHT22;9608;49.288;8.130;2023-11-22T15:33:14;3.30;99.90
18950;DHT22;9608;49.288;8.130;2023-11-22T15:35:41;3.30;99.90
18950;DHT22;9608;49.288;8.130;2023-11-22T15:38:08;3.20;99.90
18950;DHT22;9608;49.288;8.130;2023-11-22T15:40:34;3.00;99.90
18950;DHT22;9608;49.288;8.130;2023-11-22T15:43:02;2.90;99.90
18950;DHT22;9608;49.288;8.130;2023-11-22T15:45:30;2.70;99.90
18950;DHT22;9608;49.288;8.130;2023-11-22T15:47:57;2.50;99.90
18950;DHT22;9608;49.288;8.130;2023-11-22T15:50:24;2.60;99.90
18950;DHT22;9608;49.288;8.130;2023-11-22T15:52:50;2.50;99.90
18950;DHT22;9608;49.288;8.130;2023-11-22T15:55:17;2.50;99.90
18950;DHT22;9608;49.288;8.130;2023-11-22T15:57:44;2.50;99.90
18950;DHT22;9608;49.288;8.130;2023-11-22T16:00:12;2.40;99.90
18950;DHT22;9608;49.288;8.130;2023-11-22T16:02:41;2.40;99.90
18950;DHT22;9608;49.288;8.130;2023-11-22T16:05:07;2.40;99.90
18950;DHT22;9608;49.288;8.130;2023-11-22T16:07:34;2.30;99.90
18950;DHT22;9608;49.288;8.130;2023-11-22T16:10:01;2.30;99.90
18950;DHT22;9608;49.288;8.130;2023-11-22T16:12:27;2.20;99.90
18950;DHT22;9608;49.288;8.130;2023-11-22T16:14:57;2.20;99.90
18950;DHT22;9608;49.288;8.130;2023-11-22T16:17:27;2.20;99.90
18950;DHT22;9608;49.288;8.130;2023-11-22T16:19:54;2.10;99.90
18950;DHT22;9608;49.288;8.130;2023-11-22T16:22:25;2.20;99.90
18950;DHT22;9608;49.288;8.130;2023-11-22T16:24:52;2.20;99.90
18950;DHT22;9608;49.288;8.130;2023-11-22T16:27:19;2.10;99.90
18950;DHT22;9608;49.288;8.130;2023-11-22T16:29:47;2.10;99.90
18950;DHT22;9608;49.288;8.130;2023-11-22T16:32:15;2.10;99.90
18950;DHT22;9608;49.288;8.130;2023-11-22T16:34:45;2.10;99.90
18950;DHT22;9608;49.288;8.130;2023-11-22T16:37:14;2.10;99.90
18950;DHT22;9608;49.288;8.130;2023-11-22T16:39:41;2.10;99.90
18950;DHT22;9608;49.288;8.130;2023-11-22T16:42:07;2.10;99.90
18950;DHT22;9608;49.288;8.130;2023-11-22T16:44:35;2.20;99.90
18950;DHT22;9608;49.288;8.130;2023-11-22T16:47:07;2.30;99.90
18950;DHT22;9608;49.288;8.130;2023-11-22T16:49:34;2.30;99.90
18950;DHT22;9608;49.288;8.130;2023-11-22T16:52:03;2.30;99.90
18950;DHT22;9608;49.288;8.130;2023-11-22T16:54:29;2.30;99.90
18950;DHT22;9608;49.288;8.130;2023-11-22T16:56:56;2.40;99.90
18950;DHT22;9608;49.288;8.130;2023-11-22T16:59:23;2.40;99.90
18950;DHT22;9608;49.288;8.130;2023-11-22T17:01:50;2.40;99.90
18950;DHT22;9608;49.288;8.130;2023-11-22T17:04:16;2.30;99.90
18950;DHT22;9608;49.288;8.130;2023-11-22T17:06:43;2.40;99.90
18950;DHT22;9608;49.288;8.130;2023-11-22T17:09:11;2.40;99.90
18950;DHT22;9608;49.288;8.130;2023-11-22T17:11:39;2.40;99.90
18950;DHT22;9608;49.288;8.130;2023-11-22T17:14:07;2.40;99.90